Météo Nord-Pas-de-Calais   La météo au plus près de chez vous

Station météorologique

Observations météo à Brive-Souillac (19147)

19147001 295 m Dernier relevé à 12:30
31.4°C
Humidité 40 % Vent 10.4 km/h 1019.8 hPa

Journée consultée

Dimanche 6 Septembre 2026

Synthèse de la journée

Périodes de référence en UTC

Température maximale

31.4°C

à 12:30

06h 06h

Température minimale

15.7°C

à 06:00

18h 18h

Rafale maximale

22 km/h

à 12:30

00h 00h

Précipitations

0 mm

Cumul quotidien

06h 06h

Graphiques de la journée

Heure locale Réduire

Données détaillées

Relevés météo

Pas de 6 minutes Afficher les relevés infra-horaires
Relevés météo détaillés à Brive-Souillac pour le Dimanche 6 Septembre 2026
Heure Température °C Point de rosée °C Humidité % Vent moyen (raf.), km/h Précipitations mm Visibilité m Pression hPa Nébulosité Octas
12:30 31.4 °C 13.2 °C 33 % 13 km/h (22 km/h) 0 mm0 mm 60000 m 1019.1 hPa
12:24 31 °C 13.3 °C 34 % 13 km/h (19 km/h) 0 mm0 mm 60000 m 1019.1 hPa
12:18 30.9 °C 14.1 °C 36 % 12 km/h (19 km/h) 0 mm0 mm 60000 m 1019.2 hPa
12:12 30.4 °C 13.7 °C 36 % 13 km/h (21 km/h) 0 mm0 mm 60000 m 1019.2 hPa
12:06 29.8 °C 13.1 °C 36 % 12 km/h (21 km/h) 0 mm0 mm 60000 m 1019.4 hPa
12:00 29.8 °C 13.5 °C 37 % 12 km/h (20 km/h) 0 mm0 mm 60000 m 1019.5 hPa
11:54 29.9 °C 13.6 °C 37 % 12 km/h (19 km/h) 0 mm0 mm 60000 m 1019.6 hPa
11:48 29.5 °C 13.7 °C 38 % 13 km/h (19 km/h) 0 mm0 mm 60000 m 1019.6 hPa
11:42 29.5 °C 13.3 °C 37 % 13 km/h (19 km/h) 0 mm0 mm 60000 m 1019.7 hPa
11:36 29.5 °C 13.7 °C 38 % 11 km/h (17 km/h) 0 mm0 mm 60000 m 1019.7 hPa
11:30 29.1 °C 14.1 °C 40 % 10 km/h (16 km/h) 0 mm0 mm 60000 m 1019.8 hPa
11:24 28.5 °C 14 °C 41 % 10 km/h (16 km/h) 0 mm0 mm 60000 m 1019.8 hPa
11:18 28.6 °C 14.1 °C 41 % 8 km/h (14 km/h) 0 mm0 mm 60000 m 1019.9 hPa
11:12 28.8 °C 15 °C 43 % 6 km/h (11 km/h) 0 mm0 mm 60000 m 1019.9 hPa
11:06 28.7 °C 14.9 °C 43 % 3 km/h (6 km/h) 0 mm0 mm 60000 m 1020.1 hPa
11:00 28.2 °C 14.8 °C 44 % 4 km/h (8 km/h) 0 mm0 mm 60000 m 1020.2 hPa
10:54 27.5 °C 14.8 °C 46 % 6 km/h (10 km/h) 0 mm0 mm 60000 m 1020.2 hPa
10:48 27.1 °C 14.8 °C 47 % 6 km/h (10 km/h) 0 mm0 mm 60000 m 1020.2 hPa
10:42 26.5 °C 14.6 °C 48 % 6 km/h (9 km/h) 0 mm0 mm 60000 m 1020.3 hPa
10:36 26 °C 14.8 °C 50 % 8 km/h (14 km/h) 0 mm0 mm 60000 m 1020.3 hPa
10:30 25.7 °C 14.8 °C 51 % 11 km/h (16 km/h) 0 mm0 mm 60000 m 1020.3 hPa
10:24 25.2 °C 14.6 °C 52 % 12 km/h (16 km/h) 0 mm0 mm 60000 m 1020.4 hPa
10:18 24.8 °C 14.9 °C 54 % 12 km/h (18 km/h) 0 mm0 mm 60000 m 1020.5 hPa
10:12 24.4 °C 14.8 °C 55 % 12 km/h (17 km/h) 0 mm0 mm 60000 m 1020.4 hPa
10:06 24.1 °C 14.8 °C 56 % 13 km/h (18 km/h) 0 mm0 mm 60000 m 1020.4 hPa
10:00 24.1 °C 14.8 °C 56 % 11 km/h (17 km/h) 0 mm0 mm 60000 m 1020.4 hPa
09:54 23.4 °C 14.9 °C 59 % 10 km/h (15 km/h) 0 mm0 mm 60000 m 1020.5 hPa
09:48 23 °C 15.1 °C 61 % 8 km/h (11 km/h) 0 mm0 mm 60000 m 1020.6 hPa
09:42 22.4 °C 15.3 °C 64 % 7 km/h (11 km/h) 0 mm0 mm 60000 m 1020.7 hPa
09:36 22.1 °C 15.2 °C 65 % 6 km/h (10 km/h) 0 mm0 mm 60000 m 1020.7 hPa
09:30 21.8 °C 15.2 °C 66 % 4 km/h (7 km/h) 0 mm0 mm 60000 m 1020.7 hPa
09:24 21.3 °C 15.4 °C 69 % 4 km/h (6 km/h) 0 mm0 mm 60000 m 1020.7 hPa
09:18 21.1 °C 15.4 °C 70 % 5 km/h (7 km/h) 0 mm0 mm 60000 m 1020.7 hPa
09:12 21 °C 15.3 °C 70 % 4 km/h (7 km/h) 0 mm0 mm 60000 m 1020.6 hPa
09:06 20.7 °C 15.5 °C 72 % 5 km/h (11 km/h) 0 mm0 mm 60000 m 1020.6 hPa
09:00 20.5 °C 15.5 °C 73 % 7 km/h (11 km/h) 0 mm0 mm 60000 m 1020.7 hPa
08:54 20.3 °C 15.3 °C 73 % 6 km/h (11 km/h) 0 mm0 mm 60000 m 1020.6 hPa
08:48 20.2 °C 15.4 °C 74 % 6 km/h (11 km/h) 0 mm0 mm 60000 m 1020.6 hPa
08:42 20.2 °C 15.4 °C 74 % 9 km/h (13 km/h) 0 mm0 mm 60000 m 1020.4 hPa
08:36 20.1 °C 15.3 °C 74 % 8 km/h (12 km/h) 0 mm0 mm 60000 m 1020.5 hPa
08:30 19.9 °C 15.3 °C 75 % 8 km/h (12 km/h) 0 mm0 mm 60000 m 1020.5 hPa
08:24 19.5 °C 15.6 °C 78 % 5 km/h (10 km/h) 0 mm0 mm 60000 m 1020.5 hPa
08:18 18.9 °C 15.6 °C 81 % 5 km/h (9 km/h) 0 mm0 mm 60000 m 1020.5 hPa
08:12 18.6 °C 15.5 °C 82 % 6 km/h (9 km/h) 0 mm0 mm 60000 m 1020.4 hPa
08:06 18.6 °C 15.5 °C 82 % 4 km/h (9 km/h) 0 mm0 mm 60000 m 1020.5 hPa
08:00 18.1 °C 15.4 °C 84 % 0 km/h (4 km/h) 0 mm0 mm 60000 m 1020.7 hPa 7 Octas
07:54 17.5 °C 15.1 °C 86 % 0 km/h (3 km/h) 0 mm0 mm 60000 m 1020.9 hPa
07:48 17.1 °C 15.1 °C 88 % 2 km/h (3 km/h) 0 mm0 mm 60000 m 1021 hPa
07:42 16.8 °C 14.8 °C 88 % 0 km/h (3 km/h) 0 mm0 mm 60000 m 1021 hPa
07:36 16.6 °C 14.8 °C 89 % 0 km/h (2 km/h) 0 mm0 mm 60000 m 1021 hPa
07:30 16.4 °C 14.6 °C 89 % 2 km/h (3 km/h) 0 mm0 mm 60000 m 1021 hPa
07:24 16.3 °C 14.5 °C 89 % 2 km/h (3 km/h) 0 mm0 mm 60000 m 1021 hPa
07:18 16.2 °C 14.4 °C 89 % 0 km/h (2 km/h) 0 mm0 mm 60000 m 1021 hPa
07:12 16.3 °C 14.5 °C 89 % 0 km/h (3 km/h) 0 mm0 mm 60000 m 1021 hPa
07:06 16.4 °C 14.6 °C 89 % 2 km/h (4 km/h) 0 mm0 mm 60000 m 1021 hPa
07:00 16.1 °C 14.5 °C 90 % 0 km/h (4 km/h) 0 mm0 mm 60000 m 1021.1 hPa 6 Octas
06:54 16 °C 14.4 °C 90 % 0 km/h (2 km/h) 0 mm0 mm 60000 m 1021.1 hPa
06:48 16.1 °C 14.5 °C 90 % 0 km/h (4 km/h) 0 mm0 mm 60000 m 1021.1 hPa
06:42 16.1 °C 14.5 °C 90 % 0 km/h (4 km/h) 0 mm0 mm 60000 m 1021.2 hPa
06:36 16.3 °C 14.5 °C 89 % 0 km/h (2 km/h) 0 mm0 mm 60000 m 1021.1 hPa
06:30 16.5 °C 14.5 °C 88 % 0 km/h (2 km/h) 0 mm0 mm 60000 m 1021.1 hPa
06:24 16.4 °C 14.6 °C 89 % 0 km/h (3 km/h) 0 mm0 mm 60000 m 1021.2 hPa
06:18 16.5 °C 14.3 °C 87 % 2 km/h (4 km/h) 0 mm0 mm 60000 m 1021.3 hPa
06:12 16.7 °C 14.5 °C 87 % 2 km/h (4 km/h) 0 mm0 mm 60000 m 1021.2 hPa
06:06 16.6 °C 14.4 °C 87 % 0 km/h (3 km/h) 0 mm0 mm 60000 m 1021.4 hPa
06:00 16.7 °C 14.5 °C 87 % 2 km/h (4 km/h) 0 mm0 mm 60000 m 1021.3 hPa 7 Octas
05:54 16.8 °C 14.4 °C 86 % 2 km/h (4 km/h) 0 mm0 mm 60000 m 1021.2 hPa
05:48 16.8 °C 14.6 °C 87 % 2 km/h (4 km/h) 0 mm0 mm 60000 m 1021.3 hPa
05:42 16.6 °C 14.4 °C 87 % 3 km/h (4 km/h) 0 mm0 mm 60000 m 1021.5 hPa
05:36 16.6 °C 14.2 °C 86 % 3 km/h (4 km/h) 0 mm0 mm 60000 m 1021.4 hPa
05:30 16.6 °C 14.4 °C 87 % 2 km/h (4 km/h) 0 mm0 mm 60000 m 1021.2 hPa
05:24 16.2 °C 14.6 °C 90 % 2 km/h (5 km/h) 0 mm0 mm 60000 m 1021.3 hPa
05:18 15.8 °C 14 °C 89 % 3 km/h (5 km/h) 0 mm0 mm 60000 m 1021.5 hPa
05:12 15.8 °C 14 °C 89 % 0 km/h (3 km/h) 0 mm0 mm 60000 m 1021.4 hPa
05:06 15.8 °C 13.8 °C 88 % 2 km/h (4 km/h) 0 mm0 mm 60000 m 1021.5 hPa
05:00 15.9 °C 14.1 °C 89 % 3 km/h (5 km/h) 0 mm0 mm 60000 m 1021.7 hPa
04:54 15.8 °C 13.8 °C 88 % 2 km/h (4 km/h) 0 mm0 mm 60000 m 1021.8 hPa
04:48 15.9 °C 13.9 °C 88 % 0 km/h (2 km/h) 0 mm0 mm 60000 m 1021.8 hPa
04:42 15.9 °C 13.9 °C 88 % 0 km/h (2 km/h) 0 mm0 mm 60000 m 1021.7 hPa
04:36 16 °C 14 °C 88 % 0 km/h (3 km/h) 0 mm0 mm 60000 m 1021.6 hPa
04:30 16 °C 13.8 °C 87 % 2 km/h (3 km/h) 0 mm0 mm 60000 m 1021.6 hPa
04:24 16 °C 13.8 °C 87 % 0 km/h (3 km/h) 0 mm0 mm 60000 m 1021.6 hPa
04:18 16.2 °C 13.9 °C 86 % 0 km/h (3 km/h) 0 mm0 mm 60000 m 1021.5 hPa
04:12 16.3 °C 14 °C 86 % 0 km/h (3 km/h) 0 mm0 mm 60000 m 1021.5 hPa
04:06 16.3 °C 13.8 °C 85 % 0 km/h (2 km/h) 0 mm0 mm 60000 m 1021.5 hPa
04:00 16.4 °C 14.1 °C 86 % 0 km/h (2 km/h) 0 mm0 mm 60000 m 1021.6 hPa
03:54 16.5 °C 14 °C 85 % 0 km/h (0 km/h) 0 mm0 mm 60000 m 1021.5 hPa
03:48 16.5 °C 14.1 °C 86 % 0 km/h (2 km/h) 0 mm0 mm 60000 m 1021.6 hPa
03:42 16.5 °C 14 °C 85 % 0 km/h (2 km/h) 0 mm0 mm 60000 m 1021.7 hPa
03:36 16.5 °C 14 °C 85 % 2 km/h (3 km/h) 0 mm0 mm 60000 m 1021.7 hPa
03:30 16.8 °C 14.1 °C 84 % 2 km/h (3 km/h) 0 mm0 mm 60000 m 1021.6 hPa
03:24 16.8 °C 14.1 °C 84 % 2 km/h (3 km/h) 0 mm0 mm 60000 m 1021.9 hPa
03:18 16.8 °C 14.1 °C 84 % 0 km/h (2 km/h) 0 mm0 mm 60000 m 1021.9 hPa
03:12 16.9 °C 14.2 °C 84 % 0 km/h (2 km/h) 0 mm0 mm 60000 m 1021.8 hPa
03:06 16.9 °C 14.2 °C 84 % 2 km/h (4 km/h) 0 mm0 mm 60000 m 1021.9 hPa
03:00 16.9 °C 14 °C 83 % 3 km/h (4 km/h) 0 mm0 mm 60000 m 1021.8 hPa
02:54 17 °C 14.1 °C 83 % 2 km/h (3 km/h) 0 mm0 mm 60000 m 1021.7 hPa
02:48 17.1 °C 14.2 °C 83 % 0 km/h (3 km/h) 0 mm0 mm 60000 m 1021.6 hPa
02:42 17.2 °C 14.1 °C 82 % 0 km/h (4 km/h) 0 mm0 mm 60000 m 1021.7 hPa
02:36 17.4 °C 14.1 °C 81 % 0 km/h (3 km/h) 0 mm0 mm 60000 m 1021.8 hPa
02:30 17.6 °C 14.3 °C 81 % 0 km/h (3 km/h) 0 mm0 mm 60000 m 1021.9 hPa
02:24 17.7 °C 14.2 °C 80 % 0 km/h (2 km/h) 0 mm0 mm 60000 m 1021.9 hPa
02:18 17.7 °C 14.2 °C 80 % 0 km/h (2 km/h) 0 mm0 mm 60000 m 1021.9 hPa
02:12 17.9 °C 14.2 °C 79 % 0 km/h (4 km/h) 0 mm0 mm 60000 m 1022 hPa
02:06 18.1 °C 14.4 °C 79 % 0 km/h (4 km/h) 0 mm0 mm 60000 m 1022 hPa
02:00 18.1 °C 14.4 °C 79 % 0 km/h (2 km/h) 0 mm0 mm 60000 m 1021.9 hPa
01:54 18.1 °C 14.4 °C 79 % 0 km/h (2 km/h) 0 mm0 mm 60000 m 1021.9 hPa
01:48 18.2 °C 14.5 °C 79 % 0 km/h (3 km/h) 0 mm0 mm 60000 m 1021.8 hPa
01:42 18.3 °C 14.2 °C 77 % 0 km/h (2 km/h) 0 mm0 mm 60000 m 1021.8 hPa
01:36 18.5 °C 14.4 °C 77 % 0 km/h (2 km/h) 0 mm0 mm 60000 m 1021.6 hPa
01:30 18.6 °C 14.5 °C 77 % 0 km/h (0 km/h) 0 mm0 mm 60000 m 1021.6 hPa
01:24 18.7 °C 14.4 °C 76 % 0 km/h (0 km/h) 0 mm0 mm 60000 m 1021.6 hPa
01:18 18.7 °C 14.4 °C 76 % 0 km/h (0 km/h) 0 mm0 mm 60000 m 1021.6 hPa
01:12 18.9 °C 14.4 °C 75 % 0 km/h (3 km/h) 0 mm0 mm 60000 m 1021.7 hPa
01:06 19.1 °C 14.6 °C 75 % 0 km/h (4 km/h) 0 mm0 mm 60000 m 1021.7 hPa
01:00 18.9 °C 14.6 °C 76 % 3 km/h (7 km/h) 0 mm0 mm 60000 m 1021.7 hPa
00:54 18.7 °C 14.4 °C 76 % 5 km/h (7 km/h) 0 mm0 mm 60000 m 1021.6 hPa
00:48 18.8 °C 14.5 °C 76 % 3 km/h (7 km/h) 0 mm0 mm 60000 m 1021.6 hPa
00:42 18.9 °C 14.4 °C 75 % 2 km/h (4 km/h) 0 mm0 mm 60000 m 1021.6 hPa
00:36 19 °C 14.5 °C 75 % 0 km/h (3 km/h) 0 mm0 mm 60000 m 1021.6 hPa
00:30 19 °C 14.5 °C 75 % 0 km/h (3 km/h) 0 mm0 mm 60000 m 1021.6 hPa
00:24 19.1 °C 14.6 °C 75 % 0 km/h (3 km/h) 0 mm0 mm 60000 m 1021.6 hPa
00:18 19.2 °C 14.5 °C 74 % 0 km/h (2 km/h) 0 mm0 mm 60000 m 1021.4 hPa
00:12 19.3 °C 14.5 °C 74 % 0 km/h (2 km/h) 0 mm0 mm 60000 m 1021.4 hPa
00:06 19.4 °C 14.4 °C 73 % 2 km/h (4 km/h) 0 mm0 mm 60000 m 1021.5 hPa
00:00 19.5 °C 14.5 °C 73 % 3 km/h (5 km/h) 0 mm0 mm 60000 m 1021.6 hPa

Données via Météo-France

Relevés météo à Brive-Souillac

Cette page rassemble les observations de la station de Brive-Souillac : température, humidité, vent, précipitations et pression atmosphérique. Les graphiques facilitent le suivi de la journée, tandis que le tableau donne accès aux mesures horaires et infra-horaires disponibles.

Pour replacer ces mesures dans leur contexte, consultez la climatologie de Brive-Souillac ainsi que ses normales et records. Retrouvez aussi la carte des observations météo en temps réel.